Airfield :







YOU CAN JOIN US ON...

 
LOGIN :

Register | Disclaimer

   EN    FR    IT 

 









Legend :    VFR   Marginal VFR   IFR   Intensive IFR   Very Intensive IFR
Visi :
Ceiling :
>= 8 km
>= 3000ft
5 to 8 km
1000 to 3000 ft
1500m to 5 km
500 to 1000 ft
800 to 1500m
200 to 500 ft
< 800m
< 200 ft
Symbols :   Thunderstorms  Fog  Heavy snow  Heavy precipitations  Wind > 20 kt






- Airport Elevation : 92 ft
- IATA code : YZX


CYZX - CFB Greenwood

CURRENT METAR :
  • 132300Z 00000KT 15SM FEW016 SCT250 10/09 A3002 RMK SC2CI2 SLP166

EXPIRED METARs :
  • 132200Z 34002KT 15SM FEW020 BKN250 12/09 A3000 RMK SC1CI5 SLP159
  • 132100Z 01002KT 15SM FEW017 BKN250 12/09 A2998 RMK SC1CI6 SLP154

TAF TAF CYZX
Valid from the 14 at 00:00 until the 15 at 00:00 UTC


132330Z 1400/1424 VRB03KT P6SM SCT015 SCT250
TEMPO 1401/1404 BKN015
FM140400 VRB03KT P6SM SCT012 OVC020
TEMPO 1404/1407 OVC012
FM140700 VRB03KT 6SM BR SCT006 OVC012
TEMPO 1407/1412 2SM -DZ BR OVC006
PROB30 1408/1411 3/4SM -DZ BR OVC005
FM141200 VRB03KT 6SM BR SCT005 OVC015
FM141400 VRB03KT P6SM BKN020
FM141600 VRB03KT P6SM BKN025
FM142200 VRB03KT P6SM OVC020 RMK NXT FCST BY 140600Z



MET'MAP, your aeronautical weather chart ! - Copyright ORBIFLY December 2007 - Disclaimer

ORBIFLY MET'MAP TEAM :

Programming & Development : Alexandra Zaïnal
Concept & Development : Baudouin d'Aumeries
Co-Development & Prog : Marc-Olivier Méhu
Technical & hardware support : Manuel Goepfert

Contact : metmap@orbifly.com




SOURCES & CREDITS :

   NOAA